sensor_id;sensor_type;location;lat;lon;timestamp;temperature;humidity
13561;DHT22;6852;51.686;5.314;2022-09-09T00:08:02;15.90;99.90
13561;DHT22;6852;51.686;5.314;2022-09-09T00:13:30;15.80;99.90
13561;DHT22;6852;51.686;5.314;2022-09-09T00:16:27;15.90;99.90
13561;DHT22;6852;51.686;5.314;2022-09-09T00:19:07;15.80;99.90
13561;DHT22;6852;51.686;5.314;2022-09-09T00:21:38;15.80;99.90
13561;DHT22;6852;51.686;5.314;2022-09-09T00:24:16;15.60;99.90
13561;DHT22;6852;51.686;5.314;2022-09-09T00:26:50;15.60;99.90
13561;DHT22;6852;51.686;5.314;2022-09-09T00:29:33;15.60;99.90
13561;DHT22;6852;51.686;5.314;2022-09-09T00:32:13;15.40;99.90
13561;DHT22;6852;51.686;5.314;2022-09-09T00:35:12;15.50;99.90
13561;DHT22;6852;51.686;5.314;2022-09-09T00:37:45;15.50;99.90
13561;DHT22;6852;51.686;5.314;2022-09-09T00:40:53;15.60;99.90
13561;DHT22;6852;51.686;5.314;2022-09-09T00:43:32;15.60;99.90
13561;DHT22;6852;51.686;5.314;2022-09-09T00:49:07;15.70;99.90
13561;DHT22;6852;51.686;5.314;2022-09-09T00:55:21;15.70;99.90
13561;DHT22;6852;51.686;5.314;2022-09-09T00:57:52;15.60;99.90
13561;DHT22;6852;51.686;5.314;2022-09-09T01:00:31;15.50;99.90
13561;DHT22;6852;51.686;5.314;2022-09-09T01:03:22;15.50;99.90
13561;DHT22;6852;51.686;5.314;2022-09-09T01:11:25;15.30;99.90
13561;DHT22;6852;51.686;5.314;2022-09-09T01:28:50;15.50;99.90
13561;DHT22;6852;51.686;5.314;2022-09-09T01:31:32;15.50;99.90
13561;DHT22;6852;51.686;5.314;2022-09-09T01:34:02;15.50;99.90
13561;DHT22;6852;51.686;5.314;2022-09-09T01:36:34;15.50;99.90
13561;DHT22;6852;51.686;5.314;2022-09-09T01:39:02;15.40;99.90
13561;DHT22;6852;51.686;5.314;2022-09-09T01:41:33;15.30;99.90
13561;DHT22;6852;51.686;5.314;2022-09-09T01:44:00;15.50;99.90
13561;DHT22;6852;51.686;5.314;2022-09-09T01:46:30;15.50;99.90
13561;DHT22;6852;51.686;5.314;2022-09-09T01:48:58;15.50;99.90
13561;DHT22;6852;51.686;5.314;2022-09-09T01:51:26;15.40;99.90
13561;DHT22;6852;51.686;5.314;2022-09-09T01:53:53;15.30;99.90
13561;DHT22;6852;51.686;5.314;2022-09-09T01:56:47;15.40;99.90
13561;DHT22;6852;51.686;5.314;2022-09-09T01:59:24;15.50;99.90
13561;DHT22;6852;51.686;5.314;2022-09-09T02:07:00;15.30;99.90
13561;DHT22;6852;51.686;5.314;2022-09-09T02:09:29;15.30;99.90
13561;DHT22;6852;51.686;5.314;2022-09-09T02:12:09;15.40;99.90
13561;DHT22;6852;51.686;5.314;2022-09-09T02:14:42;15.30;99.90
13561;DHT22;6852;51.686;5.314;2022-09-09T02:17:16;15.20;99.90
13561;DHT22;6852;51.686;5.314;2022-09-09T02:19:51;15.30;99.90
13561;DHT22;6852;51.686;5.314;2022-09-09T02:22:21;15.40;99.90
13561;DHT22;6852;51.686;5.314;2022-09-09T02:24:50;15.30;99.90
13561;DHT22;6852;51.686;5.314;2022-09-09T02:27:22;15.20;99.90
13561;DHT22;6852;51.686;5.314;2022-09-09T02:29:50;15.40;99.90
13561;DHT22;6852;51.686;5.314;2022-09-09T02:32:22;15.40;99.90
13561;DHT22;6852;51.686;5.314;2022-09-09T02:34:56;15.50;99.90
13561;DHT22;6852;51.686;5.314;2022-09-09T02:37:32;15.50;99.90
13561;DHT22;6852;51.686;5.314;2022-09-09T02:40:05;15.50;99.90
13561;DHT22;6852;51.686;5.314;2022-09-09T02:42:41;15.40;99.90
13561;DHT22;6852;51.686;5.314;2022-09-09T02:45:09;15.40;99.90
13561;DHT22;6852;51.686;5.314;2022-09-09T02:47:46;15.40;99.90
13561;DHT22;6852;51.686;5.314;2022-09-09T02:50:33;15.40;99.90
13561;DHT22;6852;51.686;5.314;2022-09-09T02:53:16;15.50;99.90
13561;DHT22;6852;51.686;5.314;2022-09-09T02:58:21;15.50;99.90
13561;DHT22;6852;51.686;5.314;2022-09-09T03:00:50;15.60;99.90
13561;DHT22;6852;51.686;5.314;2022-09-09T03:03:18;15.50;99.90
13561;DHT22;6852;51.686;5.314;2022-09-09T03:05:46;15.40;99.90
13561;DHT22;6852;51.686;5.314;2022-09-09T03:08:14;15.40;99.90
13561;DHT22;6852;51.686;5.314;2022-09-09T03:10:41;15.30;99.90
13561;DHT22;6852;51.686;5.314;2022-09-09T03:13:07;15.30;99.90
13561;DHT22;6852;51.686;5.314;2022-09-09T03:15:34;15.20;99.90
13561;DHT22;6852;51.686;5.314;2022-09-09T03:18:02;15.20;99.90
13561;DHT22;6852;51.686;5.314;2022-09-09T03:20:29;15.30;99.90
13561;DHT22;6852;51.686;5.314;2022-09-09T03:22:59;15.20;99.90
13561;DHT22;6852;51.686;5.314;2022-09-09T03:25:26;15.30;99.90
13561;DHT22;6852;51.686;5.314;2022-09-09T03:27:55;15.20;99.90
13561;DHT22;6852;51.686;5.314;2022-09-09T03:30:28;15.20;99.90
13561;DHT22;6852;51.686;5.314;2022-09-09T03:32:56;15.00;99.90
13561;DHT22;6852;51.686;5.314;2022-09-09T03:35:23;15.20;99.90
13561;DHT22;6852;51.686;5.314;2022-09-09T03:37:50;15.30;99.90
13561;DHT22;6852;51.686;5.314;2022-09-09T03:40:17;15.30;99.90
13561;DHT22;6852;51.686;5.314;2022-09-09T03:42:47;15.40;99.90
13561;DHT22;6852;51.686;5.314;2022-09-09T03:45:15;15.40;99.90
13561;DHT22;6852;51.686;5.314;2022-09-09T03:47:43;15.20;99.90
13561;DHT22;6852;51.686;5.314;2022-09-09T03:50:10;15.30;99.90
13561;DHT22;6852;51.686;5.314;2022-09-09T03:52:38;15.30;99.90
13561;DHT22;6852;51.686;5.314;2022-09-09T03:55:06;15.20;99.90
13561;DHT22;6852;51.686;5.314;2022-09-09T03:57:34;15.30;99.90
13561;DHT22;6852;51.686;5.314;2022-09-09T04:00:06;15.20;99.90
13561;DHT22;6852;51.686;5.314;2022-09-09T04:02:34;15.30;99.90
13561;DHT22;6852;51.686;5.314;2022-09-09T04:05:04;15.20;99.90
13561;DHT22;6852;51.686;5.314;2022-09-09T04:07:32;15.20;99.90
13561;DHT22;6852;51.686;5.314;2022-09-09T04:10:00;15.20;99.90
13561;DHT22;6852;51.686;5.314;2022-09-09T04:12:26;15.10;99.90
13561;DHT22;6852;51.686;5.314;2022-09-09T04:14:53;15.10;99.90
13561;DHT22;6852;51.686;5.314;2022-09-09T04:17:23;15.20;99.90
13561;DHT22;6852;51.686;5.314;2022-09-09T04:19:50;15.20;99.90
13561;DHT22;6852;51.686;5.314;2022-09-09T04:22:20;15.10;99.90
13561;DHT22;6852;51.686;5.314;2022-09-09T04:24:49;15.10;99.90
13561;DHT22;6852;51.686;5.314;2022-09-09T04:27:21;15.10;99.90
13561;DHT22;6852;51.686;5.314;2022-09-09T04:29:48;15.20;99.90
13561;DHT22;6852;51.686;5.314;2022-09-09T04:32:15;15.20;99.90
13561;DHT22;6852;51.686;5.314;2022-09-09T04:34:44;15.10;99.90
13561;DHT22;6852;51.686;5.314;2022-09-09T04:37:12;15.20;99.90
13561;DHT22;6852;51.686;5.314;2022-09-09T04:39:40;15.20;99.90
13561;DHT22;6852;51.686;5.314;2022-09-09T04:42:07;15.30;99.90
13561;DHT22;6852;51.686;5.314;2022-09-09T04:44:34;15.20;99.90
13561;DHT22;6852;51.686;5.314;2022-09-09T04:47:01;15.20;99.90
13561;DHT22;6852;51.686;5.314;2022-09-09T04:49:28;15.20;99.90
13561;DHT22;6852;51.686;5.314;2022-09-09T04:51:54;15.10;99.90
13561;DHT22;6852;51.686;5.314;2022-09-09T04:54:23;15.10;99.90
13561;DHT22;6852;51.686;5.314;2022-09-09T04:56:50;15.00;99.90
13561;DHT22;6852;51.686;5.314;2022-09-09T04:59:17;15.00;99.90
13561;DHT22;6852;51.686;5.314;2022-09-09T05:01:44;15.10;99.90
13561;DHT22;6852;51.686;5.314;2022-09-09T05:04:11;15.10;99.90
13561;DHT22;6852;51.686;5.314;2022-09-09T05:06:38;15.20;99.90
13561;DHT22;6852;51.686;5.314;2022-09-09T05:09:05;15.10;99.90
13561;DHT22;6852;51.686;5.314;2022-09-09T05:11:33;15.10;99.90
13561;DHT22;6852;51.686;5.314;2022-09-09T05:14:04;15.20;99.90
13561;DHT22;6852;51.686;5.314;2022-09-09T05:16:31;15.10;99.90
13561;DHT22;6852;51.686;5.314;2022-09-09T05:18:58;15.20;99.90
13561;DHT22;6852;51.686;5.314;2022-09-09T05:21:26;15.20;99.90
13561;DHT22;6852;51.686;5.314;2022-09-09T05:23:53;15.20;99.90
13561;DHT22;6852;51.686;5.314;2022-09-09T05:26:22;15.20;99.90
13561;DHT22;6852;51.686;5.314;2022-09-09T05:28:51;15.10;99.90
13561;DHT22;6852;51.686;5.314;2022-09-09T05:31:19;15.20;99.90
13561;DHT22;6852;51.686;5.314;2022-09-09T05:33:48;15.20;99.90
13561;DHT22;6852;51.686;5.314;2022-09-09T05:36:18;15.30;99.90
13561;DHT22;6852;51.686;5.314;2022-09-09T05:38:45;15.30;99.90
13561;DHT22;6852;51.686;5.314;2022-09-09T05:41:13;15.20;99.90
13561;DHT22;6852;51.686;5.314;2022-09-09T05:43:42;15.30;99.90
13561;DHT22;6852;51.686;5.314;2022-09-09T05:46:16;15.20;99.90
13561;DHT22;6852;51.686;5.314;2022-09-09T05:48:44;15.30;99.90
13561;DHT22;6852;51.686;5.314;2022-09-09T05:51:18;15.30;99.90
13561;DHT22;6852;51.686;5.314;2022-09-09T05:53:50;15.20;99.90
13561;DHT22;6852;51.686;5.314;2022-09-09T05:56:23;15.30;99.90
13561;DHT22;6852;51.686;5.314;2022-09-09T05:58:52;15.40;99.90
13561;DHT22;6852;51.686;5.314;2022-09-09T06:01:26;15.40;99.90
13561;DHT22;6852;51.686;5.314;2022-09-09T06:03:53;15.40;99.90
13561;DHT22;6852;51.686;5.314;2022-09-09T06:06:23;15.50;99.90
13561;DHT22;6852;51.686;5.314;2022-09-09T06:08:52;15.40;99.90
13561;DHT22;6852;51.686;5.314;2022-09-09T06:11:25;15.40;99.90
13561;DHT22;6852;51.686;5.314;2022-09-09T06:13:52;15.50;99.90
13561;DHT22;6852;51.686;5.314;2022-09-09T06:16:23;15.60;99.90
13561;DHT22;6852;51.686;5.314;2022-09-09T06:18:51;15.60;99.90
13561;DHT22;6852;51.686;5.314;2022-09-09T06:21:20;15.60;99.90
13561;DHT22;6852;51.686;5.314;2022-09-09T06:23:48;15.70;99.90
13561;DHT22;6852;51.686;5.314;2022-09-09T06:26:18;15.60;99.90
13561;DHT22;6852;51.686;5.314;2022-09-09T06:28:47;15.70;99.90
13561;DHT22;6852;51.686;5.314;2022-09-09T06:31:16;15.70;99.90
13561;DHT22;6852;51.686;5.314;2022-09-09T06:33:55;15.60;99.90
13561;DHT22;6852;51.686;5.314;2022-09-09T06:36:24;15.70;99.90
13561;DHT22;6852;51.686;5.314;2022-09-09T06:38:52;15.80;99.90
13561;DHT22;6852;51.686;5.314;2022-09-09T06:41:21;15.80;99.90
13561;DHT22;6852;51.686;5.314;2022-09-09T06:43:48;15.80;99.90
13561;DHT22;6852;51.686;5.314;2022-09-09T06:46:17;15.70;99.90
13561;DHT22;6852;51.686;5.314;2022-09-09T06:48:45;15.80;99.90
13561;DHT22;6852;51.686;5.314;2022-09-09T06:51:16;15.80;99.90
13561;DHT22;6852;51.686;5.314;2022-09-09T06:53:45;15.90;99.90
13561;DHT22;6852;51.686;5.314;2022-09-09T06:56:30;16.20;99.90
13561;DHT22;6852;51.686;5.314;2022-09-09T06:59:00;16.30;99.90
13561;DHT22;6852;51.686;5.314;2022-09-09T07:01:32;16.20;99.90
13561;DHT22;6852;51.686;5.314;2022-09-09T07:04:00;16.20;99.90
13561;DHT22;6852;51.686;5.314;2022-09-09T07:06:53;16.20;99.90
13561;DHT22;6852;51.686;5.314;2022-09-09T07:09:20;16.20;99.90
13561;DHT22;6852;51.686;5.314;2022-09-09T07:11:50;16.20;99.90
13561;DHT22;6852;51.686;5.314;2022-09-09T07:14:20;16.20;99.90
13561;DHT22;6852;51.686;5.314;2022-09-09T07:16:47;16.20;99.90
13561;DHT22;6852;51.686;5.314;2022-09-09T07:19:14;16.30;99.90
13561;DHT22;6852;51.686;5.314;2022-09-09T07:21:42;16.40;99.90
13561;DHT22;6852;51.686;5.314;2022-09-09T07:24:10;16.40;99.90
13561;DHT22;6852;51.686;5.314;2022-09-09T07:26:38;16.60;99.90
13561;DHT22;6852;51.686;5.314;2022-09-09T07:29:06;16.60;99.90
13561;DHT22;6852;51.686;5.314;2022-09-09T07:31:35;16.50;99.90
13561;DHT22;6852;51.686;5.314;2022-09-09T07:34:04;16.50;99.90
13561;DHT22;6852;51.686;5.314;2022-09-09T07:36:33;16.50;99.90
13561;DHT22;6852;51.686;5.314;2022-09-09T07:39:06;16.60;99.90
13561;DHT22;6852;51.686;5.314;2022-09-09T07:41:36;16.60;99.90
13561;DHT22;6852;51.686;5.314;2022-09-09T07:44:06;16.60;99.90
13561;DHT22;6852;51.686;5.314;2022-09-09T07:46:34;16.60;99.90
13561;DHT22;6852;51.686;5.314;2022-09-09T07:49:02;16.70;99.90
13561;DHT22;6852;51.686;5.314;2022-09-09T07:51:33;16.60;99.90
13561;DHT22;6852;51.686;5.314;2022-09-09T07:54:05;16.60;99.90
13561;DHT22;6852;51.686;5.314;2022-09-09T07:56:32;16.70;99.90
13561;DHT22;6852;51.686;5.314;2022-09-09T07:58:59;16.80;99.90
13561;DHT22;6852;51.686;5.314;2022-09-09T08:01:36;16.90;99.90
13561;DHT22;6852;51.686;5.314;2022-09-09T08:04:08;17.00;99.90
13561;DHT22;6852;51.686;5.314;2022-09-09T08:06:39;17.10;99.90
13561;DHT22;6852;51.686;5.314;2022-09-09T08:09:11;17.20;99.90
13561;DHT22;6852;51.686;5.314;2022-09-09T08:11:44;17.20;99.90
13561;DHT22;6852;51.686;5.314;2022-09-09T08:14:11;17.20;99.90
13561;DHT22;6852;51.686;5.314;2022-09-09T08:16:42;17.10;99.90
13561;DHT22;6852;51.686;5.314;2022-09-09T08:19:09;17.30;99.90
13561;DHT22;6852;51.686;5.314;2022-09-09T08:21:38;17.30;99.90
13561;DHT22;6852;51.686;5.314;2022-09-09T08:24:07;17.20;99.90
13561;DHT22;6852;51.686;5.314;2022-09-09T08:26:40;17.10;99.90
13561;DHT22;6852;51.686;5.314;2022-09-09T08:29:10;17.20;99.90
13561;DHT22;6852;51.686;5.314;2022-09-09T08:31:40;17.20;99.90
13561;DHT22;6852;51.686;5.314;2022-09-09T08:34:08;17.20;99.90
13561;DHT22;6852;51.686;5.314;2022-09-09T08:36:38;17.20;99.90
13561;DHT22;6852;51.686;5.314;2022-09-09T08:39:07;17.30;99.90
13561;DHT22;6852;51.686;5.314;2022-09-09T08:44:27;17.20;99.90
13561;DHT22;6852;51.686;5.314;2022-09-09T08:58:14;17.20;1.00
13561;DHT22;6852;51.686;5.314;2022-09-09T09:11:37;17.30;1.00
13561;DHT22;6852;51.686;5.314;2022-09-09T09:16:53;17.60;99.90
13561;DHT22;6852;51.686;5.314;2022-09-09T09:19:21;17.50;99.90
13561;DHT22;6852;51.686;5.314;2022-09-09T09:30:18;17.30;99.90
13561;DHT22;6852;51.686;5.314;2022-09-09T09:35:41;17.50;72.40
13561;DHT22;6852;51.686;5.314;2022-09-09T09:38:20;17.60;1.00
13561;DHT22;6852;51.686;5.314;2022-09-09T09:41:08;17.50;1.00
13561;DHT22;6852;51.686;5.314;2022-09-09T09:43:39;17.30;1.00
13561;DHT22;6852;51.686;5.314;2022-09-09T09:46:20;17.20;1.00
13561;DHT22;6852;51.686;5.314;2022-09-09T09:49:01;16.90;99.90
13561;DHT22;6852;51.686;5.314;2022-09-09T09:51:30;16.90;99.90
13561;DHT22;6852;51.686;5.314;2022-09-09T09:54:08;16.90;99.90
13561;DHT22;6852;51.686;5.314;2022-09-09T09:56:36;16.70;99.90
13561;DHT22;6852;51.686;5.314;2022-09-09T09:59:03;16.90;99.90
13561;DHT22;6852;51.686;5.314;2022-09-09T10:01:49;16.80;99.90
13561;DHT22;6852;51.686;5.314;2022-09-09T10:04:18;16.80;99.90
13561;DHT22;6852;51.686;5.314;2022-09-09T10:06:47;16.80;99.90
13561;DHT22;6852;51.686;5.314;2022-09-09T10:09:29;16.70;99.90
13561;DHT22;6852;51.686;5.314;2022-09-09T10:18:06;16.90;99.90
13561;DHT22;6852;51.686;5.314;2022-09-09T10:23:27;17.00;99.90
13561;DHT22;6852;51.686;5.314;2022-09-09T10:29:17;17.00;99.90
13561;DHT22;6852;51.686;5.314;2022-09-09T10:40:35;16.80;99.90
13561;DHT22;6852;51.686;5.314;2022-09-09T10:48:31;16.80;99.90
13561;DHT22;6852;51.686;5.314;2022-09-09T10:51:28;16.90;99.90
13561;DHT22;6852;51.686;5.314;2022-09-09T10:56:42;17.10;99.90
13561;DHT22;6852;51.686;5.314;2022-09-09T10:59:27;17.10;99.90
13561;DHT22;6852;51.686;5.314;2022-09-09T11:02:20;17.00;99.90
13561;DHT22;6852;51.686;5.314;2022-09-09T11:04:53;17.20;99.90
13561;DHT22;6852;51.686;5.314;2022-09-09T11:07:44;17.10;99.90
13561;DHT22;6852;51.686;5.314;2022-09-09T11:10:40;17.20;99.90
13561;DHT22;6852;51.686;5.314;2022-09-09T11:13:23;17.10;99.90
13561;DHT22;6852;51.686;5.314;2022-09-09T11:15:59;17.20;99.90
13561;DHT22;6852;51.686;5.314;2022-09-09T11:18:29;17.10;99.90
13561;DHT22;6852;51.686;5.314;2022-09-09T11:21:03;17.10;99.90
13561;DHT22;6852;51.686;5.314;2022-09-09T11:23:45;16.90;99.90
13561;DHT22;6852;51.686;5.314;2022-09-09T11:26:21;16.90;99.90
13561;DHT22;6852;51.686;5.314;2022-09-09T11:32:33;16.90;99.90
13561;DHT22;6852;51.686;5.314;2022-09-09T11:40:00;17.10;99.90
13561;DHT22;6852;51.686;5.314;2022-09-09T11:42:36;17.10;99.90
13561;DHT22;6852;51.686;5.314;2022-09-09T11:47:58;17.30;99.90
13561;DHT22;6852;51.686;5.314;2022-09-09T11:53:16;17.30;99.90
13561;DHT22;6852;51.686;5.314;2022-09-09T11:55:45;17.40;99.90
13561;DHT22;6852;51.686;5.314;2022-09-09T12:00:42;17.40;99.90
13561;DHT22;6852;51.686;5.314;2022-09-09T12:05:59;17.30;99.90
13561;DHT22;6852;51.686;5.314;2022-09-09T12:08:28;17.40;99.90
13561;DHT22;6852;51.686;5.314;2022-09-09T12:10:58;17.50;99.90
13561;DHT22;6852;51.686;5.314;2022-09-09T12:13:30;17.50;99.90
13561;DHT22;6852;51.686;5.314;2022-09-09T12:15:59;17.50;99.90
13561;DHT22;6852;51.686;5.314;2022-09-09T12:18:35;17.40;99.90
13561;DHT22;6852;51.686;5.314;2022-09-09T12:32:07;17.80;99.90
13561;DHT22;6852;51.686;5.314;2022-09-09T12:34:46;17.90;99.90
13561;DHT22;6852;51.686;5.314;2022-09-09T12:42:46;17.90;99.90
13561;DHT22;6852;51.686;5.314;2022-09-09T12:45:21;17.90;99.90
13561;DHT22;6852;51.686;5.314;2022-09-09T12:47:55;18.00;99.90
13561;DHT22;6852;51.686;5.314;2022-09-09T12:50:33;18.00;99.90
13561;DHT22;6852;51.686;5.314;2022-09-09T12:53:06;18.20;99.90
13561;DHT22;6852;51.686;5.314;2022-09-09T12:55:36;18.10;99.90
13561;DHT22;6852;51.686;5.314;2022-09-09T12:58:05;18.10;99.90
13561;DHT22;6852;51.686;5.314;2022-09-09T13:00:35;18.10;99.90
13561;DHT22;6852;51.686;5.314;2022-09-09T13:03:16;18.10;99.90
13561;DHT22;6852;51.686;5.314;2022-09-09T13:05:43;18.30;99.90
13561;DHT22;6852;51.686;5.314;2022-09-09T13:08:12;18.50;99.90
13561;DHT22;6852;51.686;5.314;2022-09-09T13:10:50;18.70;1.00
13561;DHT22;6852;51.686;5.314;2022-09-09T13:13:39;18.90;1.00
13561;DHT22;6852;51.686;5.314;2022-09-09T13:16:30;19.00;1.00
13561;DHT22;6852;51.686;5.314;2022-09-09T13:19:02;19.30;1.00
13561;DHT22;6852;51.686;5.314;2022-09-09T13:21:39;19.20;1.00
13561;DHT22;6852;51.686;5.314;2022-09-09T13:24:30;19.20;1.00
13561;DHT22;6852;51.686;5.314;2022-09-09T13:27:03;19.00;1.00
13561;DHT22;6852;51.686;5.314;2022-09-09T13:29:32;19.00;1.00
13561;DHT22;6852;51.686;5.314;2022-09-09T13:32:15;18.80;1.00
13561;DHT22;6852;51.686;5.314;2022-09-09T13:34:51;18.90;1.00
13561;DHT22;6852;51.686;5.314;2022-09-09T13:37:34;18.60;1.00
13561;DHT22;6852;51.686;5.314;2022-09-09T13:40:06;18.70;3.90
13561;DHT22;6852;51.686;5.314;2022-09-09T13:42:40;18.70;1.00
13561;DHT22;6852;51.686;5.314;2022-09-09T13:45:21;18.70;30.50
13561;DHT22;6852;51.686;5.314;2022-09-09T13:47:49;18.70;1.00
13561;DHT22;6852;51.686;5.314;2022-09-09T13:50:20;18.80;1.00
13561;DHT22;6852;51.686;5.314;2022-09-09T13:52:58;18.80;99.90
13561;DHT22;6852;51.686;5.314;2022-09-09T13:55:27;19.00;1.00
13561;DHT22;6852;51.686;5.314;2022-09-09T13:57:56;19.10;1.00
13561;DHT22;6852;51.686;5.314;2022-09-09T14:00:24;19.00;99.90
13561;DHT22;6852;51.686;5.314;2022-09-09T14:02:52;18.90;99.90
13561;DHT22;6852;51.686;5.314;2022-09-09T14:05:22;19.00;1.00
13561;DHT22;6852;51.686;5.314;2022-09-09T14:07:49;19.00;99.90
13561;DHT22;6852;51.686;5.314;2022-09-09T14:10:19;19.40;1.00
13561;DHT22;6852;51.686;5.314;2022-09-09T14:12:47;19.70;1.00
13561;DHT22;6852;51.686;5.314;2022-09-09T14:15:14;19.70;1.00
13561;DHT22;6852;51.686;5.314;2022-09-09T14:17:42;19.80;1.00
13561;DHT22;6852;51.686;5.314;2022-09-09T14:20:11;20.00;1.00
13561;DHT22;6852;51.686;5.314;2022-09-09T14:22:38;19.90;77.00
13561;DHT22;6852;51.686;5.314;2022-09-09T14:25:08;19.80;1.00
13561;DHT22;6852;51.686;5.314;2022-09-09T14:27:35;19.50;99.90
13561;DHT22;6852;51.686;5.314;2022-09-09T14:30:02;19.50;1.00
13561;DHT22;6852;51.686;5.314;2022-09-09T14:32:30;19.40;1.00
13561;DHT22;6852;51.686;5.314;2022-09-09T14:34:57;19.20;1.00
13561;DHT22;6852;51.686;5.314;2022-09-09T14:37:24;19.20;1.00
13561;DHT22;6852;51.686;5.314;2022-09-09T14:39:52;19.20;99.90
13561;DHT22;6852;51.686;5.314;2022-09-09T14:42:19;19.70;1.00
13561;DHT22;6852;51.686;5.314;2022-09-09T14:44:46;19.90;1.00
13561;DHT22;6852;51.686;5.314;2022-09-09T14:47:14;19.80;99.90
13561;DHT22;6852;51.686;5.314;2022-09-09T14:49:41;19.80;1.00
13561;DHT22;6852;51.686;5.314;2022-09-09T14:52:13;19.40;1.00
13561;DHT22;6852;51.686;5.314;2022-09-09T14:54:43;19.40;99.90
13561;DHT22;6852;51.686;5.314;2022-09-09T14:57:10;19.20;28.10
13561;DHT22;6852;51.686;5.314;2022-09-09T14:59:37;19.10;99.90
13561;DHT22;6852;51.686;5.314;2022-09-09T15:02:04;18.80;1.00
13561;DHT22;6852;51.686;5.314;2022-09-09T15:04:32;18.60;1.00
13561;DHT22;6852;51.686;5.314;2022-09-09T15:06:59;18.30;1.00
13561;DHT22;6852;51.686;5.314;2022-09-09T15:09:26;18.20;99.90
13561;DHT22;6852;51.686;5.314;2022-09-09T15:11:53;18.10;1.00
13561;DHT22;6852;51.686;5.314;2022-09-09T15:14:21;18.20;1.00
13561;DHT22;6852;51.686;5.314;2022-09-09T15:16:51;18.10;99.90
13561;DHT22;6852;51.686;5.314;2022-09-09T15:19:18;18.20;1.00
13561;DHT22;6852;51.686;5.314;2022-09-09T15:21:45;18.20;99.90
13561;DHT22;6852;51.686;5.314;2022-09-09T15:24:12;18.10;1.00
13561;DHT22;6852;51.686;5.314;2022-09-09T15:26:40;18.10;99.90
13561;DHT22;6852;51.686;5.314;2022-09-09T15:29:07;18.10;1.00
13561;DHT22;6852;51.686;5.314;2022-09-09T15:31:35;17.80;99.90
13561;DHT22;6852;51.686;5.314;2022-09-09T15:34:04;17.80;1.00
13561;DHT22;6852;51.686;5.314;2022-09-09T15:36:39;17.60;1.00
13561;DHT22;6852;51.686;5.314;2022-09-09T15:39:09;17.40;99.90
13561;DHT22;6852;51.686;5.314;2022-09-09T15:41:39;17.40;1.00
13561;DHT22;6852;51.686;5.314;2022-09-09T15:44:07;17.60;40.70
13561;DHT22;6852;51.686;5.314;2022-09-09T15:46:36;17.60;1.00
13561;DHT22;6852;51.686;5.314;2022-09-09T15:49:17;17.80;99.90
13561;DHT22;6852;51.686;5.314;2022-09-09T15:51:47;17.90;99.90
13561;DHT22;6852;51.686;5.314;2022-09-09T15:54:16;17.90;99.90
13561;DHT22;6852;51.686;5.314;2022-09-09T15:56:45;18.00;99.90
13561;DHT22;6852;51.686;5.314;2022-09-09T15:59:15;18.00;1.00
13561;DHT22;6852;51.686;5.314;2022-09-09T16:01:42;18.00;1.00
13561;DHT22;6852;51.686;5.314;2022-09-09T16:04:11;18.20;66.80
13561;DHT22;6852;51.686;5.314;2022-09-09T16:06:38;18.20;1.00
13561;DHT22;6852;51.686;5.314;2022-09-09T16:09:07;18.20;1.00
13561;DHT22;6852;51.686;5.314;2022-09-09T16:11:36;18.10;1.00
13561;DHT22;6852;51.686;5.314;2022-09-09T16:14:04;18.20;66.90
13561;DHT22;6852;51.686;5.314;2022-09-09T16:16:33;18.10;1.00
13561;DHT22;6852;51.686;5.314;2022-09-09T16:19:06;18.10;99.90
13561;DHT22;6852;51.686;5.314;2022-09-09T16:21:36;18.10;99.90
13561;DHT22;6852;51.686;5.314;2022-09-09T16:24:05;18.00;99.90
13561;DHT22;6852;51.686;5.314;2022-09-09T16:26:34;17.90;99.90
13561;DHT22;6852;51.686;5.314;2022-09-09T16:29:02;18.00;99.90
13561;DHT22;6852;51.686;5.314;2022-09-09T16:31:30;17.90;99.90
13561;DHT22;6852;51.686;5.314;2022-09-09T16:33:59;17.90;99.90
13561;DHT22;6852;51.686;5.314;2022-09-09T16:36:28;17.90;99.90
13561;DHT22;6852;51.686;5.314;2022-09-09T16:39:02;17.80;99.90
13561;DHT22;6852;51.686;5.314;2022-09-09T16:41:30;17.80;99.90
13561;DHT22;6852;51.686;5.314;2022-09-09T16:43:59;17.80;99.90
13561;DHT22;6852;51.686;5.314;2022-09-09T16:46:28;17.90;99.90
13561;DHT22;6852;51.686;5.314;2022-09-09T16:48:57;17.80;99.90
13561;DHT22;6852;51.686;5.314;2022-09-09T16:51:30;17.90;99.90
13561;DHT22;6852;51.686;5.314;2022-09-09T16:54:04;17.90;99.90
13561;DHT22;6852;51.686;5.314;2022-09-09T16:56:37;18.00;99.90
13561;DHT22;6852;51.686;5.314;2022-09-09T16:59:16;18.00;99.90
13561;DHT22;6852;51.686;5.314;2022-09-09T17:01:46;18.00;99.90
13561;DHT22;6852;51.686;5.314;2022-09-09T17:04:18;18.10;99.90
13561;DHT22;6852;51.686;5.314;2022-09-09T17:06:48;18.00;99.90
13561;DHT22;6852;51.686;5.314;2022-09-09T17:09:19;18.00;99.90
13561;DHT22;6852;51.686;5.314;2022-09-09T17:11:47;17.90;99.90
13561;DHT22;6852;51.686;5.314;2022-09-09T17:14:18;17.80;99.90
13561;DHT22;6852;51.686;5.314;2022-09-09T17:16:45;17.80;99.90
13561;DHT22;6852;51.686;5.314;2022-09-09T17:19:13;17.60;99.90
13561;DHT22;6852;51.686;5.314;2022-09-09T17:21:41;17.80;99.90
13561;DHT22;6852;51.686;5.314;2022-09-09T17:24:28;17.60;99.90
13561;DHT22;6852;51.686;5.314;2022-09-09T17:26:56;17.60;99.90
13561;DHT22;6852;51.686;5.314;2022-09-09T17:29:25;17.80;99.90
13561;DHT22;6852;51.686;5.314;2022-09-09T17:31:53;17.80;99.90
13561;DHT22;6852;51.686;5.314;2022-09-09T17:34:21;17.60;99.90
13561;DHT22;6852;51.686;5.314;2022-09-09T17:36:48;17.60;99.90
13561;DHT22;6852;51.686;5.314;2022-09-09T17:39:15;17.70;99.90
13561;DHT22;6852;51.686;5.314;2022-09-09T17:41:44;17.60;99.90
13561;DHT22;6852;51.686;5.314;2022-09-09T17:44:14;17.70;99.90
13561;DHT22;6852;51.686;5.314;2022-09-09T17:46:43;17.60;99.90
13561;DHT22;6852;51.686;5.314;2022-09-09T17:49:13;17.50;99.90
13561;DHT22;6852;51.686;5.314;2022-09-09T17:51:41;17.50;99.90
13561;DHT22;6852;51.686;5.314;2022-09-09T17:54:13;17.40;99.90
13561;DHT22;6852;51.686;5.314;2022-09-09T17:56:40;17.50;99.90
13561;DHT22;6852;51.686;5.314;2022-09-09T17:59:09;17.40;99.90
13561;DHT22;6852;51.686;5.314;2022-09-09T18:01:38;17.40;99.90
13561;DHT22;6852;51.686;5.314;2022-09-09T18:04:09;17.30;99.90
13561;DHT22;6852;51.686;5.314;2022-09-09T18:06:39;17.30;99.90
13561;DHT22;6852;51.686;5.314;2022-09-09T18:09:10;17.30;99.90
13561;DHT22;6852;51.686;5.314;2022-09-09T18:11:45;17.30;99.90
13561;DHT22;6852;51.686;5.314;2022-09-09T18:14:16;17.20;99.90
13561;DHT22;6852;51.686;5.314;2022-09-09T18:16:44;17.20;99.90
13561;DHT22;6852;51.686;5.314;2022-09-09T18:19:13;17.30;99.90
13561;DHT22;6852;51.686;5.314;2022-09-09T18:21:42;17.20;99.90
13561;DHT22;6852;51.686;5.314;2022-09-09T18:24:13;17.10;99.90
13561;DHT22;6852;51.686;5.314;2022-09-09T18:26:41;17.20;99.90
13561;DHT22;6852;51.686;5.314;2022-09-09T18:29:11;17.20;99.90
13561;DHT22;6852;51.686;5.314;2022-09-09T18:31:39;17.20;99.90
13561;DHT22;6852;51.686;5.314;2022-09-09T18:34:10;17.10;99.90
13561;DHT22;6852;51.686;5.314;2022-09-09T18:36:45;17.10;99.90
13561;DHT22;6852;51.686;5.314;2022-09-09T18:39:14;17.00;99.90
13561;DHT22;6852;51.686;5.314;2022-09-09T18:41:43;16.90;99.90